sensor_id;sensor_type;location;lat;lon;timestamp;pressure;altitude;pressure_sealevel;temperature;humidity
47154;BME280;32907;41.412;2.164;2023-10-31T00:00:26;99889.38;;;22.04;39.78
47154;BME280;32907;41.412;2.164;2023-10-31T00:02:54;99975.72;;;22.57;39.51
47154;BME280;32907;41.412;2.164;2023-10-31T00:05:23;99962.53;;;22.51;39.71
47154;BME280;32907;41.412;2.164;2023-10-31T00:07:51;99882.47;;;21.98;39.70
47154;BME280;32907;41.412;2.164;2023-10-31T00:10:19;99935.53;;;22.41;39.70
47154;BME280;32907;41.412;2.164;2023-10-31T00:12:48;99922.22;;;22.39;39.52
47154;BME280;32907;41.412;2.164;2023-10-31T00:15:16;99966.38;;;22.58;39.51
47154;BME280;32907;41.412;2.164;2023-10-31T00:17:45;99968.81;;;22.51;39.21
47154;BME280;32907;41.412;2.164;2023-10-31T00:20:13;99977.66;;;22.57;39.42
47154;BME280;32907;41.412;2.164;2023-10-31T00:22:41;99971.72;;;22.46;39.48
47154;BME280;32907;41.412;2.164;2023-10-31T00:25:10;99965.75;;;22.44;38.65
47154;BME280;32907;41.412;2.164;2023-10-31T00:27:38;99958.53;;;22.40;39.11
47154;BME280;32907;41.412;2.164;2023-10-31T00:30:07;99976.66;;;22.53;38.57
47154;BME280;32907;41.412;2.164;2023-10-31T00:32:35;99977.00;;;22.51;38.26
47154;BME280;32907;41.412;2.164;2023-10-31T00:35:04;99970.25;;;22.40;38.89
47154;BME280;32907;41.412;2.164;2023-10-31T00:37:33;99966.06;;;22.43;38.85
47154;BME280;32907;41.412;2.164;2023-10-31T00:40:02;99911.91;;;22.10;38.18
47154;BME280;32907;41.412;2.164;2023-10-31T00:42:30;99979.09;;;22.54;38.42
47154;BME280;32907;41.412;2.164;2023-10-31T00:44:59;99986.78;;;22.52;37.75
47154;BME280;32907;41.412;2.164;2023-10-31T00:47:28;99949.66;;;22.17;38.22
47154;BME280;32907;41.412;2.164;2023-10-31T00:49:56;99994.03;;;22.48;38.25
47154;BME280;32907;41.412;2.164;2023-10-31T00:52:25;99998.84;;;22.43;38.14
47154;BME280;32907;41.412;2.164;2023-10-31T00:54:53;99993.53;;;22.38;38.51
47154;BME280;32907;41.412;2.164;2023-10-31T00:57:22;99988.72;;;22.43;38.13
47154;BME280;32907;41.412;2.164;2023-10-31T00:59:50;99966.22;;;22.29;38.45
47154;BME280;32907;41.412;2.164;2023-10-31T01:02:18;100005.44;;;22.50;38.16
47154;BME280;32907;41.412;2.164;2023-10-31T01:04:49;100005.78;;;22.49;38.21
47154;BME280;32907;41.412;2.164;2023-10-31T01:07:17;99994.84;;;22.40;38.60
47154;BME280;32907;41.412;2.164;2023-10-31T01:09:46;99965.25;;;22.25;38.08
47154;BME280;32907;41.412;2.164;2023-10-31T01:12:14;99998.84;;;22.51;37.38
47154;BME280;32907;41.412;2.164;2023-10-31T01:14:43;99937.75;;;22.13;38.20
47154;BME280;32907;41.412;2.164;2023-10-31T01:17:11;99937.94;;;22.08;37.80
47154;BME280;32907;41.412;2.164;2023-10-31T01:19:40;100001.59;;;22.51;37.94
47154;BME280;32907;41.412;2.164;2023-10-31T01:22:10;100011.56;;;22.56;37.21
47154;BME280;32907;41.412;2.164;2023-10-31T01:24:39;100017.84;;;22.56;37.34
47154;BME280;32907;41.412;2.164;2023-10-31T01:27:08;100010.09;;;22.41;37.56
47154;BME280;32907;41.412;2.164;2023-10-31T01:29:37;100020.56;;;22.39;37.36
47154;BME280;32907;41.412;2.164;2023-10-31T01:32:05;99993.84;;;22.27;37.20
47154;BME280;32907;41.412;2.164;2023-10-31T01:34:46;100021.97;;;22.45;37.54
47154;BME280;32907;41.412;2.164;2023-10-31T01:37:14;100035.16;;;22.43;37.15
47154;BME280;32907;41.412;2.164;2023-10-31T01:39:43;100039.97;;;22.38;37.42
47154;BME280;32907;41.412;2.164;2023-10-31T01:42:14;100053.16;;;22.44;36.85
47154;BME280;32907;41.412;2.164;2023-10-31T01:44:43;100045.59;;;22.24;36.72
47154;BME280;32907;41.412;2.164;2023-10-31T01:47:12;100071.16;;;22.45;37.36
47154;BME280;32907;41.412;2.164;2023-10-31T01:49:40;100080.00;;;22.42;37.05
47154;BME280;32907;41.412;2.164;2023-10-31T01:52:08;100085.47;;;22.42;36.85
47154;BME280;32907;41.412;2.164;2023-10-31T01:54:37;100050.06;;;22.20;36.40
47154;BME280;32907;41.412;2.164;2023-10-31T01:57:08;100092.69;;;22.38;36.06
47154;BME280;32907;41.412;2.164;2023-10-31T01:59:36;100077.38;;;22.28;36.26
47154;BME280;32907;41.412;2.164;2023-10-31T02:02:05;100078.50;;;22.27;36.53
47154;BME280;32907;41.412;2.164;2023-10-31T02:04:33;100075.94;;;22.22;36.53
47154;BME280;32907;41.412;2.164;2023-10-31T02:07:02;100074.19;;;22.26;37.08
47154;BME280;32907;41.412;2.164;2023-10-31T02:09:30;100076.44;;;22.33;36.87
47154;BME280;32907;41.412;2.164;2023-10-31T02:11:59;100078.03;;;22.25;36.40
47154;BME280;32907;41.412;2.164;2023-10-31T02:14:27;100081.41;;;22.22;36.07
47154;BME280;32907;41.412;2.164;2023-10-31T02:16:56;100063.22;;;22.18;36.45
47154;BME280;32907;41.412;2.164;2023-10-31T02:19:24;100077.22;;;22.25;36.56
47154;BME280;32907;41.412;2.164;2023-10-31T02:21:53;100059.38;;;22.19;36.87
47154;BME280;32907;41.412;2.164;2023-10-31T02:24:21;100053.56;;;22.12;36.58
47154;BME280;32907;41.412;2.164;2023-10-31T02:26:49;100059.34;;;22.10;36.67
47154;BME280;32907;41.412;2.164;2023-10-31T02:29:19;100060.63;;;22.13;36.64
47154;BME280;32907;41.412;2.164;2023-10-31T02:31:47;100065.47;;;22.16;36.20
47154;BME280;32907;41.412;2.164;2023-10-31T02:34:15;100011.03;;;21.79;36.34
47154;BME280;32907;41.412;2.164;2023-10-31T02:36:44;100092.50;;;22.26;36.15
47154;BME280;32907;41.412;2.164;2023-10-31T02:39:12;100053.19;;;22.04;36.26
47154;BME280;32907;41.412;2.164;2023-10-31T02:41:40;100088.81;;;22.22;36.07
47154;BME280;32907;41.412;2.164;2023-10-31T02:44:09;100097.59;;;22.19;36.31
47154;BME280;32907;41.412;2.164;2023-10-31T02:46:38;100100.66;;;22.17;36.42
47154;BME280;32907;41.412;2.164;2023-10-31T02:49:06;100083.72;;;22.06;36.59
47154;BME280;32907;41.412;2.164;2023-10-31T02:51:37;100066.66;;;21.92;36.22
47154;BME280;32907;41.412;2.164;2023-10-31T02:54:06;100107.06;;;22.13;36.03
47154;BME280;32907;41.412;2.164;2023-10-31T02:56:34;100102.22;;;22.10;36.09
47154;BME280;32907;41.412;2.164;2023-10-31T02:59:03;100086.44;;;21.98;36.20
47154;BME280;32907;41.412;2.164;2023-10-31T03:01:32;100112.03;;;22.11;36.86
47154;BME280;32907;41.412;2.164;2023-10-31T03:04:00;100106.09;;;22.09;36.74
47154;BME280;32907;41.412;2.164;2023-10-31T03:06:28;100101.75;;;22.08;36.45
47154;BME280;32907;41.412;2.164;2023-10-31T03:08:57;100125.50;;;22.07;36.57
47154;BME280;32907;41.412;2.164;2023-10-31T03:11:26;100118.22;;;22.02;37.00
47154;BME280;32907;41.412;2.164;2023-10-31T03:13:56;100123.59;;;22.08;36.45
47154;BME280;32907;41.412;2.164;2023-10-31T03:16:25;100130.16;;;22.06;36.42
47154;BME280;32907;41.412;2.164;2023-10-31T03:18:54;100061.84;;;21.58;36.48
47154;BME280;32907;41.412;2.164;2023-10-31T03:21:24;100116.75;;;21.96;36.43
47154;BME280;32907;41.412;2.164;2023-10-31T03:23:53;100120.78;;;21.99;36.19
47154;BME280;32907;41.412;2.164;2023-10-31T03:26:23;100137.47;;;21.97;36.29
47154;BME280;32907;41.412;2.164;2023-10-31T03:28:52;100126.53;;;21.97;36.20
47154;BME280;32907;41.412;2.164;2023-10-31T03:31:25;100133.94;;;21.97;36.72
47154;BME280;32907;41.412;2.164;2023-10-31T03:33:53;100053.41;;;21.46;36.89
47154;BME280;32907;41.412;2.164;2023-10-31T03:36:22;100049.88;;;21.45;36.85
47154;BME280;32907;41.412;2.164;2023-10-31T03:38:50;100149.25;;;22.06;36.68
47154;BME280;32907;41.412;2.164;2023-10-31T03:41:18;100130.75;;;22.03;36.47
47154;BME280;32907;41.412;2.164;2023-10-31T03:43:46;100134.75;;;21.97;36.33
47154;BME280;32907;41.412;2.164;2023-10-31T03:46:15;100142.81;;;22.02;36.27
47154;BME280;32907;41.412;2.164;2023-10-31T03:48:43;100158.88;;;22.04;36.31
47154;BME280;32907;41.412;2.164;2023-10-31T03:51:12;100151.44;;;21.96;36.29
47154;BME280;32907;41.412;2.164;2023-10-31T03:53:41;100164.59;;;21.94;36.43
47154;BME280;32907;41.412;2.164;2023-10-31T03:56:10;100161.22;;;21.97;36.10
47154;BME280;32907;41.412;2.164;2023-10-31T03:58:42;100161.06;;;21.93;36.38
47154;BME280;32907;41.412;2.164;2023-10-31T04:01:10;100154.31;;;21.91;36.83
47154;BME280;32907;41.412;2.164;2023-10-31T04:03:39;100074.06;;;21.38;36.60
47154;BME280;32907;41.412;2.164;2023-10-31T04:06:07;100099.06;;;21.63;36.91
47154;BME280;32907;41.412;2.164;2023-10-31T04:08:36;100162.88;;;21.98;36.18
47154;BME280;32907;41.412;2.164;2023-10-31T04:11:04;100101.59;;;21.50;36.37
47154;BME280;32907;41.412;2.164;2023-10-31T04:13:33;100090.78;;;21.45;36.82
47154;BME280;32907;41.412;2.164;2023-10-31T04:16:02;100164.72;;;21.89;36.62
47154;BME280;32907;41.412;2.164;2023-10-31T04:18:30;100177.63;;;21.97;36.90
47154;BME280;32907;41.412;2.164;2023-10-31T04:20:59;100185.81;;;21.97;36.56
47154;BME280;32907;41.412;2.164;2023-10-31T04:23:27;100097.75;;;21.29;36.47
47154;BME280;32907;41.412;2.164;2023-10-31T04:25:55;100196.88;;;21.92;36.72
47154;BME280;32907;41.412;2.164;2023-10-31T04:28:24;100203.13;;;21.92;36.29
47154;BME280;32907;41.412;2.164;2023-10-31T04:30:52;100132.84;;;21.44;36.85
47154;BME280;32907;41.412;2.164;2023-10-31T04:33:20;100202.66;;;21.90;36.81
47154;BME280;32907;41.412;2.164;2023-10-31T04:35:49;100210.19;;;21.93;37.02
47154;BME280;32907;41.412;2.164;2023-10-31T04:38:17;100221.75;;;21.90;36.61
47154;BME280;32907;41.412;2.164;2023-10-31T04:40:46;100136.41;;;21.31;37.20
47154;BME280;32907;41.412;2.164;2023-10-31T04:43:14;100065.47;;;20.86;36.54
47154;BME280;32907;41.412;2.164;2023-10-31T04:45:43;100061.25;;;20.80;37.01
47154;BME280;32907;41.412;2.164;2023-10-31T04:48:11;100202.34;;;21.69;36.76
47154;BME280;32907;41.412;2.164;2023-10-31T04:50:39;100184.16;;;21.65;36.89
47154;BME280;32907;41.412;2.164;2023-10-31T04:53:08;100132.56;;;21.32;37.17
47154;BME280;32907;41.412;2.164;2023-10-31T04:55:36;100209.94;;;21.81;36.96
47154;BME280;32907;41.412;2.164;2023-10-31T04:58:05;100210.47;;;21.83;36.88
47154;BME280;32907;41.412;2.164;2023-10-31T05:00:33;100222.38;;;21.87;36.54
47154;BME280;32907;41.412;2.164;2023-10-31T05:03:01;100227.22;;;21.90;36.84
47154;BME280;32907;41.412;2.164;2023-10-31T05:05:31;100218.44;;;21.79;36.88
47154;BME280;32907;41.412;2.164;2023-10-31T05:07:59;100152.53;;;21.41;36.84
47154;BME280;32907;41.412;2.164;2023-10-31T05:10:27;100223.47;;;21.86;36.27
47154;BME280;32907;41.412;2.164;2023-10-31T05:12:56;100131.66;;;21.23;36.48
47154;BME280;32907;41.412;2.164;2023-10-31T05:15:24;100129.13;;;21.27;36.50
47154;BME280;32907;41.412;2.164;2023-10-31T05:17:53;100226.31;;;21.81;36.67
47154;BME280;32907;41.412;2.164;2023-10-31T05:20:21;100218.06;;;21.72;36.54
47154;BME280;32907;41.412;2.164;2023-10-31T05:22:49;100218.41;;;21.71;36.45
47154;BME280;32907;41.412;2.164;2023-10-31T05:25:18;100154.53;;;21.27;36.37
47154;BME280;32907;41.412;2.164;2023-10-31T05:27:46;100163.56;;;21.22;37.07
47154;BME280;32907;41.412;2.164;2023-10-31T05:30:16;100194.81;;;21.30;37.15
47154;BME280;32907;41.412;2.164;2023-10-31T05:32:44;100171.44;;;21.24;36.65
47154;BME280;32907;41.412;2.164;2023-10-31T05:35:12;100246.00;;;21.69;36.79
47154;BME280;32907;41.412;2.164;2023-10-31T05:37:41;100228.53;;;21.57;36.86
47154;BME280;32907;41.412;2.164;2023-10-31T05:42:37;100252.16;;;21.75;37.26
47154;BME280;32907;41.412;2.164;2023-10-31T05:45:06;100252.63;;;21.77;37.54
47154;BME280;32907;41.412;2.164;2023-10-31T05:47:34;100084.56;;;20.73;37.38
47154;BME280;32907;41.412;2.164;2023-10-31T05:50:03;100260.03;;;21.76;37.27
47154;BME280;32907;41.412;2.164;2023-10-31T05:52:32;100249.16;;;21.63;37.25
47154;BME280;32907;41.412;2.164;2023-10-31T05:55:00;100249.53;;;21.70;37.27
47154;BME280;32907;41.412;2.164;2023-10-31T05:57:29;100225.44;;;21.49;37.09
47154;BME280;32907;41.412;2.164;2023-10-31T05:59:58;100092.03;;;20.67;37.39
47154;BME280;32907;41.412;2.164;2023-10-31T06:02:26;100188.34;;;21.26;37.37
47154;BME280;32907;41.412;2.164;2023-10-31T06:04:55;100266.91;;;21.74;36.91
47154;BME280;32907;41.412;2.164;2023-10-31T06:07:24;100286.50;;;21.76;36.74
47154;BME280;32907;41.412;2.164;2023-10-31T06:09:52;100261.69;;;21.64;36.94
47154;BME280;32907;41.412;2.164;2023-10-31T06:12:20;100123.53;;;20.73;37.22
47154;BME280;32907;41.412;2.164;2023-10-31T06:14:48;100262.94;;;21.58;37.49
47154;BME280;32907;41.412;2.164;2023-10-31T06:17:17;100241.94;;;21.44;37.05
47154;BME280;32907;41.412;2.164;2023-10-31T06:19:45;100294.22;;;21.74;37.84
47154;BME280;32907;41.412;2.164;2023-10-31T06:22:15;100298.53;;;21.75;37.55
47154;BME280;32907;41.412;2.164;2023-10-31T06:24:44;100304.19;;;21.78;37.73
47154;BME280;32907;41.412;2.164;2023-10-31T06:27:12;100328.66;;;21.84;37.66
47154;BME280;32907;41.412;2.164;2023-10-31T06:29:40;100251.25;;;21.43;37.65
47154;BME280;32907;41.412;2.164;2023-10-31T06:32:28;100191.31;;;21.02;37.87
47154;BME280;32907;41.412;2.164;2023-10-31T06:34:56;100321.44;;;21.88;37.93
47154;BME280;32907;41.412;2.164;2023-10-31T06:37:24;100250.22;;;21.39;37.47
47154;BME280;32907;41.412;2.164;2023-10-31T06:39:53;100329.69;;;21.96;37.35
47154;BME280;32907;41.412;2.164;2023-10-31T06:42:21;100234.28;;;21.33;36.69
47154;BME280;32907;41.412;2.164;2023-10-31T06:44:50;100226.50;;;21.26;36.72
47154;BME280;32907;41.412;2.164;2023-10-31T06:47:18;100318.63;;;21.79;36.92
47154;BME280;32907;41.412;2.164;2023-10-31T06:49:46;100344.41;;;21.87;36.49
47154;BME280;32907;41.412;2.164;2023-10-31T06:52:14;100351.34;;;21.93;36.51
47154;BME280;32907;41.412;2.164;2023-10-31T06:54:43;100344.72;;;21.85;36.46
47154;BME280;32907;41.412;2.164;2023-10-31T06:57:11;100284.06;;;21.52;37.16
47154;BME280;32907;41.412;2.164;2023-10-31T06:59:40;100300.88;;;21.68;37.02
47154;BME280;32907;41.412;2.164;2023-10-31T07:02:09;100354.59;;;21.95;37.47
47154;BME280;32907;41.412;2.164;2023-10-31T07:04:38;100265.38;;;21.45;37.79
47154;BME280;32907;41.412;2.164;2023-10-31T07:07:06;100339.81;;;21.96;38.31
47154;BME280;32907;41.412;2.164;2023-10-31T07:09:35;100339.88;;;22.04;38.65
47154;BME280;32907;41.412;2.164;2023-10-31T07:12:05;100346.88;;;22.11;38.71
47154;BME280;32907;41.412;2.164;2023-10-31T07:14:34;100335.31;;;22.14;38.70
47154;BME280;32907;41.412;2.164;2023-10-31T07:17:03;100310.59;;;21.96;38.29
47154;BME280;32907;41.412;2.164;2023-10-31T07:19:32;100337.44;;;22.17;37.71
47154;BME280;32907;41.412;2.164;2023-10-31T07:22:02;100240.47;;;21.61;37.98
47154;BME280;32907;41.412;2.164;2023-10-31T07:24:32;100248.03;;;21.64;37.93
47154;BME280;32907;41.412;2.164;2023-10-31T07:27:02;100334.09;;;22.20;46.06
47154;BME280;32907;41.412;2.164;2023-10-31T07:29:31;100267.06;;;21.55;39.62
47154;BME280;32907;41.412;2.164;2023-10-31T07:32:00;100322.78;;;21.76;37.63
47154;BME280;32907;41.412;2.164;2023-10-31T07:34:29;100324.75;;;21.48;37.28
47154;BME280;32907;41.412;2.164;2023-10-31T07:36:57;100320.91;;;21.49;38.26
47154;BME280;32907;41.412;2.164;2023-10-31T07:39:26;100248.66;;;21.11;38.15
47154;BME280;32907;41.412;2.164;2023-10-31T07:41:54;100337.34;;;21.72;37.75
47154;BME280;32907;41.412;2.164;2023-10-31T07:44:23;100263.59;;;21.27;37.38
47154;BME280;32907;41.412;2.164;2023-10-31T07:46:51;100366.78;;;21.75;37.41
47154;BME280;32907;41.412;2.164;2023-10-31T07:49:21;100297.31;;;21.31;37.11
47154;BME280;32907;41.412;2.164;2023-10-31T07:51:49;100314.50;;;21.32;37.18
47154;BME280;32907;41.412;2.164;2023-10-31T07:54:18;100420.91;;;21.95;36.94
47154;BME280;32907;41.412;2.164;2023-10-31T07:56:47;100417.06;;;21.96;37.01
47154;BME280;32907;41.412;2.164;2023-10-31T07:59:16;100383.72;;;21.86;40.81
47154;BME280;32907;41.412;2.164;2023-10-31T08:01:44;100339.81;;;21.60;38.20
47154;BME280;32907;41.412;2.164;2023-10-31T08:04:12;100423.91;;;22.21;37.43
47154;BME280;32907;41.412;2.164;2023-10-31T08:06:43;100426.03;;;22.24;38.47
47154;BME280;32907;41.412;2.164;2023-10-31T08:09:12;100362.59;;;21.91;37.74
47154;BME280;32907;41.412;2.164;2023-10-31T08:11:40;100435.28;;;22.37;37.63
47154;BME280;32907;41.412;2.164;2023-10-31T08:14:08;100445.59;;;22.40;38.45
47154;BME280;32907;41.412;2.164;2023-10-31T08:16:38;100442.25;;;22.43;38.22
47154;BME280;32907;41.412;2.164;2023-10-31T08:19:06;100447.59;;;22.48;38.75
47154;BME280;32907;41.412;2.164;2023-10-31T08:21:34;100444.25;;;22.51;38.09
47154;BME280;32907;41.412;2.164;2023-10-31T08:24:04;100422.63;;;22.41;38.01
47154;BME280;32907;41.412;2.164;2023-10-31T08:26:33;100444.13;;;22.56;37.92
47154;BME280;32907;41.412;2.164;2023-10-31T08:29:02;100438.66;;;22.56;37.69
47154;BME280;32907;41.412;2.164;2023-10-31T08:31:31;100441.56;;;22.60;37.35
47154;BME280;32907;41.412;2.164;2023-10-31T08:33:59;100435.94;;;22.56;37.30
47154;BME280;32907;41.412;2.164;2023-10-31T08:36:29;100449.34;;;22.67;37.17
47154;BME280;32907;41.412;2.164;2023-10-31T08:38:57;100445.47;;;22.68;37.12
47154;BME280;32907;41.412;2.164;2023-10-31T08:41:26;100445.81;;;22.66;36.81
47154;BME280;32907;41.412;2.164;2023-10-31T08:43:54;100445.97;;;22.70;37.19
47154;BME280;32907;41.412;2.164;2023-10-31T08:46:22;100446.19;;;22.73;37.37
47154;BME280;32907;41.412;2.164;2023-10-31T08:48:50;100441.41;;;22.79;37.30
47154;BME280;32907;41.412;2.164;2023-10-31T08:51:19;100437.03;;;22.78;37.46
47154;BME280;32907;41.412;2.164;2023-10-31T08:53:47;100421.69;;;22.68;37.33
47154;BME280;32907;41.412;2.164;2023-10-31T08:56:15;100438.78;;;22.74;38.56
47154;BME280;32907;41.412;2.164;2023-10-31T08:58:44;100406.56;;;22.62;38.02
47154;BME280;32907;41.412;2.164;2023-10-31T09:01:12;100435.94;;;22.79;37.65
47154;BME280;32907;41.412;2.164;2023-10-31T09:03:40;100413.44;;;22.59;37.17
47154;BME280;32907;41.412;2.164;2023-10-31T09:06:09;100421.38;;;22.70;36.98
47154;BME280;32907;41.412;2.164;2023-10-31T09:08:37;100453.31;;;22.83;36.48
47154;BME280;32907;41.412;2.164;2023-10-31T09:11:06;100463.66;;;22.86;36.06
47154;BME280;32907;41.412;2.164;2023-10-31T09:13:35;100378.16;;;22.27;35.82
47154;BME280;32907;41.412;2.164;2023-10-31T09:16:04;100394.75;;;22.30;35.60
47154;BME280;32907;41.412;2.164;2023-10-31T09:18:32;100464.69;;;22.76;35.86
47154;BME280;32907;41.412;2.164;2023-10-31T09:21:01;100463.38;;;22.74;35.60
47154;BME280;32907;41.412;2.164;2023-10-31T09:23:29;100469.47;;;22.71;35.42
47154;BME280;32907;41.412;2.164;2023-10-31T09:39:07;100470.59;;;23.14;34.95
47154;BME280;32907;41.412;2.164;2023-10-31T09:41:36;100472.25;;;23.02;34.63
47154;BME280;32907;41.412;2.164;2023-10-31T09:44:04;100479.81;;;22.96;34.32
47154;BME280;32907;41.412;2.164;2023-10-31T09:46:32;100485.22;;;22.87;34.27
47154;BME280;32907;41.412;2.164;2023-10-31T09:49:01;100490.41;;;22.75;35.07
47154;BME280;32907;41.412;2.164;2023-10-31T09:51:31;100501.66;;;22.74;35.56
47154;BME280;32907;41.412;2.164;2023-10-31T09:54:02;100494.19;;;22.66;34.26
47154;BME280;32907;41.412;2.164;2023-10-31T09:56:30;100506.34;;;22.59;33.99
47154;BME280;32907;41.412;2.164;2023-10-31T09:59:04;100510.84;;;22.55;34.21
47154;BME280;32907;41.412;2.164;2023-10-31T10:01:33;100521.75;;;22.55;35.18
47154;BME280;32907;41.412;2.164;2023-10-31T10:04:01;100514.06;;;22.57;34.55
47154;BME280;32907;41.412;2.164;2023-10-31T10:06:29;100518.72;;;22.57;35.40
47154;BME280;32907;41.412;2.164;2023-10-31T10:08:58;100511.22;;;22.63;34.85
47154;BME280;32907;41.412;2.164;2023-10-31T10:11:26;100514.25;;;22.61;34.15
47154;BME280;32907;41.412;2.164;2023-10-31T10:13:56;100513.56;;;22.55;34.09
47154;BME280;32907;41.412;2.164;2023-10-31T10:16:32;100522.38;;;22.52;34.36
47154;BME280;32907;41.412;2.164;2023-10-31T10:19:20;100495.28;;;22.42;34.44
47154;BME280;32907;41.412;2.164;2023-10-31T10:24:23;100520.25;;;22.49;34.48
47154;BME280;32907;41.412;2.164;2023-10-31T10:26:52;100521.16;;;22.45;34.53
47154;BME280;32907;41.412;2.164;2023-10-31T10:29:20;100528.16;;;22.51;35.66
47154;BME280;32907;41.412;2.164;2023-10-31T10:31:49;100514.25;;;22.61;36.34
47154;BME280;32907;41.412;2.164;2023-10-31T10:34:17;100513.81;;;22.68;36.12
47154;BME280;32907;41.412;2.164;2023-10-31T10:36:48;100525.13;;;22.75;36.63
47154;BME280;32907;41.412;2.164;2023-10-31T10:39:22;100515.69;;;22.81;36.79
47154;BME280;32907;41.412;2.164;2023-10-31T10:41:55;100515.38;;;22.82;38.73
47154;BME280;32907;41.412;2.164;2023-10-31T10:44:34;100522.19;;;22.85;37.70
47154;BME280;32907;41.412;2.164;2023-10-31T10:47:04;100511.94;;;22.91;37.52
47154;BME280;32907;41.412;2.164;2023-10-31T10:49:36;100519.06;;;23.00;36.93
47154;BME280;32907;41.412;2.164;2023-10-31T10:52:14;100513.16;;;23.07;37.20
47154;BME280;32907;41.412;2.164;2023-10-31T10:54:49;100507.00;;;23.01;37.21
47154;BME280;32907;41.412;2.164;2023-10-31T10:57:31;100515.47;;;23.13;36.68
47154;BME280;32907;41.412;2.164;2023-10-31T11:00:04;100515.78;;;23.12;36.63
47154;BME280;32907;41.412;2.164;2023-10-31T11:02:36;100515.47;;;23.13;36.62
47154;BME280;32907;41.412;2.164;2023-10-31T11:05:06;100513.22;;;23.15;36.61
47154;BME280;32907;41.412;2.164;2023-10-31T11:07:37;100510.16;;;23.17;36.40
47154;BME280;32907;41.412;2.164;2023-10-31T11:10:08;100486.13;;;23.05;36.00
47154;BME280;32907;41.412;2.164;2023-10-31T11:12:38;100508.75;;;23.20;36.05
47154;BME280;32907;41.412;2.164;2023-10-31T11:15:08;100495.19;;;23.14;36.20
47154;BME280;32907;41.412;2.164;2023-10-31T11:17:39;100507.75;;;23.15;35.61
47154;BME280;32907;41.412;2.164;2023-10-31T11:20:10;100515.97;;;23.15;35.83
47154;BME280;32907;41.412;2.164;2023-10-31T11:22:42;100503.88;;;23.16;36.18
47154;BME280;32907;41.412;2.164;2023-10-31T11:25:14;100507.16;;;23.19;36.60
47154;BME280;32907;41.412;2.164;2023-10-31T11:27:53;100496.19;;;23.19;36.52
47154;BME280;32907;41.412;2.164;2023-10-31T11:30:29;100473.94;;;23.11;36.54
47154;BME280;32907;41.412;2.164;2023-10-31T11:32:58;100485.44;;;23.22;36.86
47154;BME280;32907;41.412;2.164;2023-10-31T11:35:30;100464.31;;;23.14;36.56
47154;BME280;32907;41.412;2.164;2023-10-31T11:38:05;100473.03;;;23.25;36.62
47154;BME280;32907;41.412;2.164;2023-10-31T11:40:36;100470.81;;;23.27;37.19
47154;BME280;32907;41.412;2.164;2023-10-31T11:43:06;100479.84;;;23.27;36.92
47154;BME280;32907;41.412;2.164;2023-10-31T11:48:04;100484.78;;;23.25;36.54
47154;BME280;32907;41.412;2.164;2023-10-31T11:50:33;100450.38;;;23.02;36.25
47154;BME280;32907;41.412;2.164;2023-10-31T11:55:34;100472.44;;;23.28;37.11
47154;BME280;32907;41.412;2.164;2023-10-31T11:58:17;100469.38;;;23.29;37.14
47154;BME280;32907;41.412;2.164;2023-10-31T12:00:51;100476.63;;;23.34;37.32
47154;BME280;32907;41.412;2.164;2023-10-31T12:03:21;100488.09;;;23.36;37.47
47154;BME280;32907;41.412;2.164;2023-10-31T12:05:56;100492.44;;;23.37;37.06
47154;BME280;32907;41.412;2.164;2023-10-31T12:08:27;100492.75;;;23.35;36.79
47154;BME280;32907;41.412;2.164;2023-10-31T12:11:12;100478.72;;;23.28;36.26
47154;BME280;32907;41.412;2.164;2023-10-31T12:14:02;100485.78;;;23.29;36.73
47154;BME280;32907;41.412;2.164;2023-10-31T12:16:31;100484.34;;;23.32;36.39
47154;BME280;32907;41.412;2.164;2023-10-31T12:19:01;100482.72;;;23.31;36.68
47154;BME280;32907;41.412;2.164;2023-10-31T12:24:11;100484.03;;;23.33;36.12
47154;BME280;32907;41.412;2.164;2023-10-31T12:26:40;100481.28;;;23.33;36.31
47154;BME280;32907;41.412;2.164;2023-10-31T12:29:19;100472.59;;;23.31;35.85
47154;BME280;32907;41.412;2.164;2023-10-31T12:31:52;100478.56;;;23.33;36.50
47154;BME280;32907;41.412;2.164;2023-10-31T12:34:22;100486.16;;;23.36;36.45
47154;BME280;32907;41.412;2.164;2023-10-31T12:36:52;100490.19;;;23.39;36.48
47154;BME280;32907;41.412;2.164;2023-10-31T12:39:22;100466.00;;;23.32;36.65
47154;BME280;32907;41.412;2.164;2023-10-31T12:41:52;100473.13;;;23.42;37.22
47154;BME280;32907;41.412;2.164;2023-10-31T12:44:25;100468.16;;;23.44;37.33
47154;BME280;32907;41.412;2.164;2023-10-31T12:46:55;100467.84;;;23.45;37.15
47154;BME280;32907;41.412;2.164;2023-10-31T12:49:24;100477.16;;;23.44;37.47
47154;BME280;32907;41.412;2.164;2023-10-31T12:52:03;100469.28;;;23.43;36.27
47154;BME280;32907;41.412;2.164;2023-10-31T12:54:37;100467.66;;;23.42;36.29
47154;BME280;32907;41.412;2.164;2023-10-31T12:57:06;100460.41;;;23.37;36.42
47154;BME280;32907;41.412;2.164;2023-10-31T12:59:36;100464.41;;;23.40;36.22
47154;BME280;32907;41.412;2.164;2023-10-31T13:02:06;100451.88;;;23.39;35.94
47154;BME280;32907;41.412;2.164;2023-10-31T13:04:36;100438.31;;;23.34;35.96
47154;BME280;32907;41.412;2.164;2023-10-31T13:07:06;100451.88;;;23.39;36.08
47154;BME280;32907;41.412;2.164;2023-10-31T13:09:37;100455.72;;;23.38;36.59
47154;BME280;32907;41.412;2.164;2023-10-31T13:12:10;100452.84;;;23.34;36.18
47154;BME280;32907;41.412;2.164;2023-10-31T13:14:42;100446.41;;;23.39;36.63
47154;BME280;32907;41.412;2.164;2023-10-31T13:17:10;100450.56;;;23.36;36.56
47154;BME280;32907;41.412;2.164;2023-10-31T13:19:39;100450.75;;;23.40;36.47
47154;BME280;32907;41.412;2.164;2023-10-31T13:22:08;100449.63;;;23.41;36.53
47154;BME280;32907;41.412;2.164;2023-10-31T13:24:36;100444.16;;;23.41;36.37
47154;BME280;32907;41.412;2.164;2023-10-31T13:27:04;100437.06;;;23.40;36.25